หน้าหลัก
METAR-TAF:

METAR-TAF

ท่าอากาศยาน :

Kugaaruk, นูนาวุต, แคนาดา

ละติจูด: 68-32N, ลองจิจูด: 089-49W, ความสูง: 15 ม.

การสังเกตสภาพอากาศปัจจุบัน

รายงานได้ทำขึ้นเมื่อ 47 นาทีที่แล้ว ณ เวลา 16:00 UTC
ลม 11 นอตจากตะวันตก/ตะวันตกเฉียงใต้โดยมีลมกระโชกได้ถึง17 นอต
อุณหภูมิ -33°C
ความชื้น 67%
ความกดอากาศ 1008 hPa
ทัศนวิสัย: 2.0 กม.
ท้องฟ้าแจ่มใส
หมอกน้ำค้าง

METAR: CYBB 021600Z 24011G17KT 1 1/4SM BR SKC M33/M37 A2976 RMK FG4 S00 AFT 00Z/SNOW CVR/HARD PACK SLP082

เวลา: 09:47 (16:47 UTC)

การพยากรณ์

รายงานได้ทำขึ้นเมื่อ 20 ชั่วโมงและ 37 นาทีที่แล้ว ณ เวลา 20:10 UTC
การพยากรณ์มีผลตั้งแต่วันที่ 01 ณ เวลา 20 UTC จนถึงวันที่ 01 ณ เวลา 24 UTC
ลม 18 นอตจากตะวันตก/ตะวันตกเฉียงใต้
ทัศนวิสัย: 3.2 กม.
ท้องฟ้าแจ่มใส
ผลึกน้ำแข็ง, หมอกน้ำค้าง
ชั่วคราว
ตั้งแต่วันที่ 01 ณ เวลา 20 UTC จนถึงวันที่ 01 ณ เวลา 23 UTC
ทัศนวิสัย: 9.7 กม.
หมอกน้ำค้าง
กำลังกลายเป็น
ตั้งแต่วันที่ 01 ณ เวลา 23 UTC จนถึงวันที่ 01 ณ เวลา 24 UTC
ทัศนวิสัย: 10 กม.

TAF: CYBB 012010Z 0120/0124 24018KT WS003/33020KT 2SM IC BR SKC TEMPO 0120/0123 6SM BR BECMG 0123/0124 P6SM NSW RMK NXT FCST BY 021800Z

สังเกตการณ์สภาพอากาศและพยากรณ์อากาศของสนามบินมากกว่า 4000 แห่ง (รายงาน METAR และ TAF).

สถานีที่ดูได้จะแสดงไว้ด้วยจุดสีเหลืองและสีแดงบนแผนที่.

เลื่อนเมาส์ไปเหนือจุดเพื่อดูชื่อสถานี.

แล้วคลิกเพื่อดูสังเกตการณ์และการพยากรณ์สภาพอากาศ.

ในการเปลี่ยนแผนที่: คลิกที่ปุ่มสีเขียวที่มีกากบาทสีดำเพื่อซูมเข้า; ที่ปุ่มสีเขียวที่มีขีดเพื่อซูมออก; หรือที่ลูกศรสีเขียวเพื่อไปยังแผนที่ที่อยู่ติดกัน.


METAR-TAF: